createdAt,value
2023-01-05T00:01:06.057Z,12.93
2023-01-05T00:03:33.820Z,19.57
2023-01-05T00:06:05.071Z,14.67
2023-01-05T00:08:37.022Z,18.87
2023-01-05T00:11:40.369Z,20.87
2023-01-05T00:14:30.295Z,13.00
2023-01-05T00:17:15.678Z,15.10
2023-01-05T00:20:00.771Z,21.03
2023-01-05T00:22:31.538Z,19.47
2023-01-05T00:25:12.128Z,16.60
2023-01-05T00:27:43.920Z,17.47
2023-01-05T00:30:14.138Z,14.07
2023-01-05T00:32:41.685Z,17.73
2023-01-05T00:35:09.536Z,11.87
2023-01-05T00:37:38.406Z,17.40
2023-01-05T00:40:11.361Z,17.13
2023-01-05T00:42:38.223Z,15.80
2023-01-05T00:45:10.730Z,13.47
2023-01-05T00:47:37.145Z,17.60
2023-01-05T00:50:04.540Z,22.03
2023-01-05T00:52:30.976Z,19.23
2023-01-05T00:54:57.576Z,18.77
2023-01-05T00:57:24.163Z,18.47
2023-01-05T00:59:52.813Z,17.13
2023-01-05T01:02:20.065Z,19.03
2023-01-05T01:04:46.678Z,19.57
2023-01-05T01:07:13.120Z,16.97
2023-01-05T01:09:40.579Z,17.33
2023-01-05T01:12:08.187Z,17.00
2023-01-05T01:14:34.908Z,22.33
2023-01-05T01:17:02.744Z,18.47
2023-01-05T01:19:29.237Z,13.77
2023-01-05T01:21:55.738Z,16.93
2023-01-05T01:24:25.314Z,11.93
2023-01-05T01:26:52.851Z,19.13
2023-01-05T01:29:21.080Z,19.53
2023-01-05T01:31:48.653Z,16.47
2023-01-05T01:34:15.634Z,18.13
2023-01-05T01:36:42.605Z,10.53
2023-01-05T01:39:11.131Z,19.60
2023-01-05T01:41:40.061Z,13.10
2023-01-05T01:44:44.741Z,16.30
2023-01-05T01:47:16.778Z,14.57
2023-01-05T01:49:43.176Z,17.53
2023-01-05T01:52:09.723Z,12.43
2023-01-05T01:54:36.294Z,16.57
2023-01-05T01:57:04.281Z,11.33
2023-01-05T01:59:30.978Z,14.47
2023-01-05T02:02:01.139Z,12.73
2023-01-05T02:04:32.444Z,14.83
2023-01-05T02:07:00.927Z,13.33
2023-01-05T02:09:27.628Z,14.13
2023-01-05T02:12:06.854Z,18.23
2023-01-05T02:14:58.730Z,18.93
2023-01-05T02:17:37.200Z,17.43
2023-01-05T02:20:31.370Z,12.77
2023-01-05T02:23:31.850Z,16.03
2023-01-05T02:26:02.031Z,16.97
2023-01-05T02:28:53.968Z,12.27
2023-01-05T02:31:31.305Z,16.67
2023-01-05T02:34:17.385Z,22.53
2023-01-05T02:36:53.920Z,16.07
2023-01-05T02:39:39.602Z,16.37
2023-01-05T02:42:15.353Z,15.87
2023-01-05T02:44:44.162Z,16.83
2023-01-05T02:47:25.958Z,15.23
2023-01-05T02:49:57.155Z,19.67
2023-01-05T02:52:24.783Z,16.63
2023-01-05T02:55:00.834Z,20.37
2023-01-05T02:57:52.729Z,13.67
2023-01-05T03:00:34.784Z,18.27
2023-01-05T03:03:12.211Z,21.47
2023-01-05T03:05:55.885Z,13.80
2023-01-05T03:08:30.762Z,15.93
2023-01-05T03:11:23.402Z,18.33
2023-01-05T03:14:12.566Z,12.50
2023-01-05T03:16:39.813Z,18.70
2023-01-05T03:19:30.342Z,16.97
2023-01-05T03:22:18.262Z,16.47
2023-01-05T03:25:04.315Z,19.17
2023-01-05T03:27:54.309Z,11.33
2023-01-05T03:30:48.206Z,16.63
2023-01-05T03:33:40.689Z,17.80
2023-01-05T03:36:09.176Z,13.50
2023-01-05T03:38:45.250Z,19.33
2023-01-05T03:41:15.473Z,16.83
2023-01-05T03:43:43.044Z,13.87
2023-01-05T03:46:13.690Z,19.77
2023-01-05T03:48:40.874Z,22.40
2023-01-05T03:51:07.774Z,23.77
2023-01-05T03:53:36.258Z,19.47
2023-01-05T03:56:03.960Z,18.37
2023-01-05T03:58:30.402Z,15.17
2023-01-05T04:00:57.157Z,20.63
2023-01-05T04:03:29.572Z,18.63
2023-01-05T04:06:00.304Z,17.90
2023-01-05T04:08:29.794Z,19.60
2023-01-05T04:10:57.492Z,22.60
2023-01-05T04:13:24.979Z,17.93
2023-01-05T04:15:54.770Z,23.17
2023-01-05T04:18:21.318Z,14.77
2023-01-05T04:20:48.147Z,19.20
2023-01-05T04:23:14.577Z,17.80
2023-01-05T04:25:41.743Z,16.10
2023-01-05T04:28:16.116Z,13.60
2023-01-05T04:30:44.540Z,16.40
2023-01-05T04:33:11.833Z,15.80
2023-01-05T04:35:38.728Z,19.43
2023-01-05T04:38:06.129Z,20.60
2023-01-05T04:40:33.360Z,17.70
2023-01-05T04:43:00.582Z,18.87
2023-01-05T04:45:27.302Z,10.47
2023-01-05T04:47:54.692Z,12.10
2023-01-05T04:50:23.529Z,15.70
2023-01-05T04:52:50.090Z,18.83
2023-01-05T04:55:19.065Z,19.00
2023-01-05T04:57:46.237Z,23.00
2023-01-05T05:00:14.791Z,15.90
2023-01-05T05:02:43.792Z,13.70
2023-01-05T05:05:13.252Z,15.00
2023-01-05T05:07:39.679Z,15.90
2023-01-05T05:10:08.913Z,16.13
2023-01-05T05:12:35.613Z,17.90
2023-01-05T05:15:02.817Z,16.73
2023-01-05T05:17:30.112Z,19.77
2023-01-05T05:19:57.246Z,24.17
2023-01-05T05:22:25.019Z,12.00
2023-01-05T05:24:51.428Z,23.57
2023-01-05T05:27:17.855Z,22.30
2023-01-05T05:29:44.276Z,20.03
2023-01-05T05:32:10.831Z,20.03
2023-01-05T05:34:37.237Z,20.67
2023-01-05T05:37:03.630Z,17.83
2023-01-05T05:39:30.118Z,21.77
2023-01-05T05:41:56.544Z,14.83
2023-01-05T05:44:22.972Z,15.40
2023-01-05T05:46:49.435Z,19.47
2023-01-05T05:49:15.885Z,21.03
2023-01-05T05:51:42.275Z,23.83
2023-01-05T05:54:08.764Z,22.67
2023-01-05T05:56:35.170Z,15.80
2023-01-05T05:59:02.777Z,14.10
2023-01-05T06:01:30.135Z,18.57
2023-01-05T06:03:56.775Z,18.10
2023-01-05T06:06:23.311Z,25.60
2023-01-05T06:08:49.738Z,15.73
2023-01-05T06:11:16.136Z,21.67
2023-01-05T06:13:42.824Z,24.87
2023-01-05T06:16:09.425Z,17.83
2023-01-05T06:18:36.116Z,17.47
2023-01-05T06:21:02.706Z,18.87
2023-01-05T06:23:29.927Z,24.57
2023-01-05T06:25:56.312Z,20.93
2023-01-05T06:28:22.702Z,17.30
2023-01-05T06:30:49.082Z,24.40
2023-01-05T06:33:15.517Z,22.27
2023-01-05T06:35:41.899Z,21.53
2023-01-05T06:38:08.462Z,16.37
2023-01-05T06:40:35.444Z,16.00
2023-01-05T06:43:03.448Z,14.27
2023-01-05T06:45:30.038Z,17.90
2023-01-05T06:47:58.930Z,23.53
2023-01-05T06:50:25.429Z,14.43
2023-01-05T06:52:51.833Z,15.70
2023-01-05T06:55:18.313Z,14.10
2023-01-05T06:57:44.772Z,18.03
2023-01-05T07:00:12.343Z,16.43
2023-01-05T07:02:38.890Z,15.97
2023-01-05T07:05:05.740Z,16.30
2023-01-05T07:07:32.336Z,20.07
2023-01-05T07:09:58.758Z,15.43
2023-01-05T07:12:25.804Z,13.53
2023-01-05T07:14:57.291Z,11.50
2023-01-05T07:17:24.361Z,17.27
2023-01-05T07:19:50.757Z,21.37
2023-01-05T07:22:17.205Z,23.37
2023-01-05T07:24:43.731Z,20.03
2023-01-05T07:27:10.330Z,19.63
2023-01-05T07:29:36.846Z,17.63
2023-01-05T07:32:03.836Z,18.00
2023-01-05T07:34:30.325Z,15.73
2023-01-05T07:36:57.070Z,18.33
2023-01-05T07:39:23.810Z,17.40
2023-01-05T07:41:50.231Z,14.93
2023-01-05T07:44:18.210Z,17.20
2023-01-05T07:46:44.702Z,13.00
2023-01-05T07:49:11.350Z,18.23
2023-01-05T07:51:37.815Z,15.93
2023-01-05T07:54:04.329Z,18.03
2023-01-05T07:56:30.750Z,15.67
2023-01-05T07:58:57.338Z,15.93
2023-01-05T08:01:23.840Z,14.37
2023-01-05T08:03:50.470Z,13.63
2023-01-05T08:06:19.478Z,15.37
2023-01-05T08:08:46.356Z,16.20
2023-01-05T08:11:17.400Z,15.03
2023-01-05T08:14:00.201Z,18.83
2023-01-05T08:16:30.941Z,16.93
2023-01-05T08:18:58.402Z,15.37
2023-01-05T08:21:25.249Z,12.97
2023-01-05T08:23:53.199Z,10.43
2023-01-05T08:26:23.263Z,13.30
2023-01-05T08:28:50.499Z,13.67
2023-01-05T08:31:20.846Z,19.10
2023-01-05T08:33:47.445Z,14.27
2023-01-05T08:36:17.113Z,17.63
2023-01-05T08:38:48.177Z,16.07
2023-01-05T08:41:16.902Z,13.70
2023-01-05T08:43:43.512Z,17.27
2023-01-05T08:46:10.691Z,14.77
2023-01-05T08:48:37.139Z,13.60
2023-01-05T08:51:06.126Z,15.50
2023-01-05T08:53:34.516Z,17.53
2023-01-05T08:56:01.843Z,14.57
2023-01-05T08:58:28.539Z,14.47
2023-01-05T09:00:55.129Z,17.50
2023-01-05T09:03:21.579Z,14.33
2023-01-05T09:05:48.524Z,19.20
2023-01-05T09:08:14.923Z,19.33
2023-01-05T09:10:41.314Z,17.43
2023-01-05T09:13:07.801Z,13.57
2023-01-05T09:15:35.081Z,12.97
2023-01-05T09:18:02.779Z,17.30
2023-01-05T09:20:33.166Z,12.03
2023-01-05T09:23:02.867Z,15.50
2023-01-05T09:25:29.393Z,14.57
2023-01-05T09:27:56.044Z,11.67
2023-01-05T09:30:22.597Z,12.30
2023-01-05T09:32:48.998Z,12.67
2023-01-05T09:35:15.405Z,12.27
2023-01-05T09:37:41.971Z,12.07
2023-01-05T09:40:09.755Z,13.63
2023-01-05T09:42:43.577Z,11.90
2023-01-05T09:45:13.482Z,14.03
2023-01-05T09:47:42.159Z,7.90
2023-01-05T09:50:19.510Z,15.40
2023-01-05T09:52:46.353Z,10.20
2023-01-05T09:55:21.567Z,14.27
2023-01-05T09:58:06.259Z,11.43
2023-01-05T10:00:33.747Z,13.80
2023-01-05T10:03:11.045Z,15.03
2023-01-05T10:05:44.763Z,9.70
2023-01-05T10:08:20.099Z,13.73
2023-01-05T10:11:39.929Z,6.30
2023-01-05T10:14:14.676Z,10.03
2023-01-05T10:16:44.120Z,10.90
2023-01-05T10:19:15.684Z,8.40
2023-01-05T10:21:47.975Z,6.17
2023-01-05T10:24:35.251Z,5.63
2023-01-05T10:27:25.145Z,7.20
2023-01-05T10:30:13.225Z,6.20
2023-01-05T10:33:27.760Z,9.07
2023-01-05T10:36:06.371Z,6.20
2023-01-05T10:39:10.320Z,4.27
2023-01-05T10:41:45.956Z,6.70
2023-01-05T10:44:47.990Z,5.37
2023-01-05T10:47:15.152Z,8.57
2023-01-05T10:49:45.353Z,7.83
2023-01-05T10:52:18.329Z,9.20
2023-01-05T10:55:00.911Z,8.60
2023-01-05T10:57:38.104Z,8.90
2023-01-05T11:00:21.994Z,9.10
2023-01-05T11:02:57.766Z,8.90
2023-01-05T11:05:33.550Z,8.50
2023-01-05T11:08:06.764Z,10.17
2023-01-05T11:10:39.093Z,8.10
2023-01-05T11:13:17.751Z,9.60
2023-01-05T11:15:59.868Z,10.63
2023-01-05T11:18:33.605Z,11.63
2023-01-05T11:21:07.671Z,10.67
2023-01-05T11:23:49.117Z,9.17
2023-01-05T11:26:18.686Z,7.00
2023-01-05T11:29:10.895Z,11.43
2023-01-05T11:31:42.727Z,7.43
2023-01-05T11:34:17.489Z,8.30
2023-01-05T11:36:52.509Z,5.83
2023-01-05T11:39:47.813Z,11.63
2023-01-05T11:42:23.353Z,9.47
2023-01-05T11:44:55.494Z,9.57
2023-01-05T11:47:43.280Z,10.17
2023-01-05T11:50:13.450Z,5.13
2023-01-05T11:52:49.890Z,13.43
2023-01-05T11:55:22.468Z,6.53
2023-01-05T11:57:54.193Z,12.20
2023-01-05T12:00:26.883Z,8.43
2023-01-05T12:03:11.839Z,5.90
2023-01-05T12:05:50.573Z,6.17
2023-01-05T12:08:27.701Z,5.13
2023-01-05T12:11:17.268Z,5.27
2023-01-05T12:14:21.279Z,4.53
2023-01-05T12:17:03.074Z,4.30
2023-01-05T12:20:00.579Z,3.73
2023-01-05T12:22:57.786Z,4.67
2023-01-05T12:25:52.990Z,5.20
2023-01-05T12:28:43.409Z,3.33
2023-01-05T12:34:18.418Z,3.57
2023-01-05T12:37:04.479Z,5.30
2023-01-05T12:40:05.012Z,6.53
2023-01-05T12:42:50.469Z,4.67
2023-01-05T12:45:32.294Z,5.00
2023-01-05T12:48:15.073Z,6.43
2023-01-05T12:51:08.166Z,6.60
2023-01-05T12:53:40.563Z,7.33
2023-01-05T12:56:16.599Z,5.93
2023-01-05T12:58:56.970Z,9.30
2023-01-05T13:01:27.838Z,6.90
2023-01-05T13:04:11.698Z,6.33
2023-01-05T13:06:42.830Z,6.67
2023-01-05T13:09:20.157Z,9.00
2023-01-05T13:11:55.733Z,5.97
2023-01-05T13:14:28.231Z,8.43
2023-01-05T13:17:00.832Z,7.13
2023-01-05T13:19:34.811Z,4.53
2023-01-05T13:22:10.662Z,7.23
2023-01-05T13:24:50.513Z,7.07
2023-01-05T13:27:17.770Z,6.77
2023-01-05T13:29:48.029Z,7.60
2023-01-05T13:32:43.862Z,6.60
2023-01-05T13:35:32.245Z,4.17
2023-01-05T13:38:28.963Z,3.20
2023-01-05T13:41:08.436Z,2.63
2023-01-05T13:44:07.321Z,3.50
2023-01-05T13:46:47.637Z,3.67
2023-01-05T13:49:44.183Z,3.00
2023-01-05T13:52:47.800Z,3.57
2023-01-05T13:55:25.877Z,2.53
2023-01-05T13:57:55.534Z,2.27
2023-01-05T14:00:25.300Z,5.17
2023-01-05T14:03:20.973Z,5.17
2023-01-05T14:05:51.876Z,3.93
2023-01-05T14:08:38.098Z,3.67
2023-01-05T14:11:15.180Z,5.17
2023-01-05T14:13:54.679Z,2.60
2023-01-05T14:16:33.904Z,5.50
2023-01-05T14:19:20.437Z,2.77
2023-01-05T14:21:49.571Z,2.87
2023-01-05T14:24:33.501Z,4.70
2023-01-05T14:27:24.270Z,1.47
2023-01-05T14:29:53.656Z,2.13
2023-01-05T14:32:26.755Z,3.97
2023-01-05T14:37:55.342Z,1.37
2023-01-05T14:40:33.643Z,2.13
2023-01-05T14:43:04.104Z,3.60
2023-01-05T14:45:33.654Z,1.20
2023-01-05T14:48:03.472Z,3.03
2023-01-05T14:50:32.410Z,3.40
2023-01-05T14:53:03.894Z,3.17
2023-01-05T14:55:40.195Z,5.70
2023-01-05T14:58:15.608Z,4.07
2023-01-05T15:00:52.922Z,2.77
2023-01-05T15:03:37.267Z,3.73
2023-01-05T15:06:11.402Z,4.43
2023-01-05T15:09:05.865Z,4.37
2023-01-05T15:11:43.477Z,5.17
2023-01-05T15:14:32.377Z,3.90
2023-01-05T15:16:58.917Z,2.87
2023-01-05T15:19:56.648Z,4.47
2023-01-05T15:22:38.392Z,4.73
2023-01-05T15:25:34.393Z,4.53
2023-01-05T15:28:31.909Z,3.37
2023-01-05T15:31:13.985Z,10.63
2023-01-05T15:33:46.104Z,5.53
2023-01-05T15:36:24.893Z,7.83
2023-01-05T15:38:51.320Z,9.60
2023-01-05T15:41:20.958Z,8.67
2023-01-05T15:43:49.038Z,6.17
2023-01-05T15:46:26.395Z,5.07
2023-01-05T15:48:54.392Z,7.43
2023-01-05T15:51:27.759Z,6.07
2023-01-05T15:53:57.679Z,4.03
2023-01-05T15:56:51.006Z,5.67
2023-01-05T15:59:35.112Z,5.70
2023-01-05T16:02:01.846Z,6.07
2023-01-05T16:04:28.523Z,6.97
2023-01-05T16:07:01.978Z,7.17
2023-01-05T16:09:35.480Z,8.67
2023-01-05T16:12:11.166Z,5.77
2023-01-05T16:14:43.242Z,6.13
2023-01-05T16:17:19.178Z,19.17
2023-01-05T16:19:49.752Z,24.13
2023-01-05T16:22:44.517Z,12.53
2023-01-05T16:25:18.399Z,9.70
2023-01-05T16:27:49.252Z,6.90
2023-01-05T16:30:37.813Z,8.07
2023-01-05T16:33:14.966Z,6.30
2023-01-05T16:35:55.311Z,7.17
2023-01-05T16:38:21.713Z,6.00
2023-01-05T16:40:48.077Z,8.70
2023-01-05T16:43:23.684Z,8.43
2023-01-05T16:45:52.217Z,7.87
2023-01-05T16:48:40.096Z,8.23
2023-01-05T16:51:09.324Z,6.83
2023-01-05T16:53:41.928Z,8.97
2023-01-05T16:56:19.378Z,11.23
2023-01-05T16:58:46.254Z,9.93
2023-01-05T17:01:13.358Z,9.13
2023-01-05T17:03:40.878Z,8.13
2023-01-05T17:06:19.735Z,7.37
2023-01-05T17:08:46.162Z,9.17
2023-01-05T17:11:12.792Z,10.07
2023-01-05T17:13:46.990Z,9.17
2023-01-05T17:16:14.084Z,10.43
2023-01-05T17:18:40.516Z,24.97
2023-01-05T17:21:08.909Z,12.93
2023-01-05T17:23:46.604Z,9.67
2023-01-05T17:26:36.646Z,8.37
2023-01-05T17:29:05.215Z,11.83
2023-01-05T17:31:31.618Z,10.67
2023-01-05T17:33:59.315Z,11.73
2023-01-05T17:36:32.386Z,13.23
2023-01-05T17:38:59.858Z,9.93
2023-01-05T17:41:26.515Z,9.13
2023-01-05T17:43:53.141Z,9.83
2023-01-05T17:46:24.534Z,11.37
2023-01-05T17:48:50.998Z,10.67
2023-01-05T17:51:18.366Z,11.80
2023-01-05T17:53:44.993Z,16.97
2023-01-05T17:56:11.461Z,9.17
2023-01-05T17:58:38.954Z,11.80
2023-01-05T18:01:06.450Z,15.77
2023-01-05T18:03:33.276Z,12.83
2023-01-05T18:06:01.091Z,13.13
2023-01-05T18:08:29.661Z,17.87
2023-01-05T18:10:56.601Z,11.97
2023-01-05T18:13:24.332Z,9.20
2023-01-05T18:15:52.356Z,11.47
2023-01-05T18:18:21.589Z,9.13
2023-01-05T18:20:51.131Z,9.43
2023-01-05T18:23:19.321Z,10.23
2023-01-05T18:25:46.019Z,11.87
2023-01-05T18:28:12.779Z,7.30
2023-01-05T18:30:42.848Z,10.37
2023-01-05T18:33:09.725Z,8.87
2023-01-05T18:35:43.437Z,9.07
2023-01-05T18:38:10.205Z,7.73
2023-01-05T18:40:36.753Z,15.23
2023-01-05T18:43:03.470Z,8.13
2023-01-05T18:45:39.299Z,13.33
2023-01-05T18:48:06.200Z,12.10
2023-01-05T18:50:32.735Z,12.17
2023-01-05T18:52:59.331Z,9.80
2023-01-05T18:55:26.200Z,11.37
2023-01-05T18:57:52.628Z,12.83
2023-01-05T19:00:19.142Z,16.60
2023-01-05T19:02:45.578Z,20.40
2023-01-05T19:05:12.059Z,14.73
2023-01-05T19:07:39.704Z,22.00
2023-01-05T19:10:06.493Z,22.87
2023-01-05T19:12:33.329Z,24.90
2023-01-05T19:15:00.083Z,20.23
2023-01-05T19:17:28.408Z,26.37
2023-01-05T19:19:57.416Z,28.53
2023-01-05T19:22:23.848Z,27.30
2023-01-05T19:24:50.254Z,31.17
2023-01-05T19:27:16.677Z,29.47
2023-01-05T19:29:43.190Z,27.27
2023-01-05T19:32:09.598Z,29.83
2023-01-05T19:34:36.084Z,27.00
2023-01-05T19:37:05.497Z,31.73
2023-01-05T19:39:32.699Z,34.03
2023-01-05T19:41:59.335Z,27.97
2023-01-05T19:44:26.333Z,32.07
2023-01-05T19:46:53.999Z,26.97
2023-01-05T19:49:22.941Z,28.80
2023-01-05T19:51:50.098Z,27.30
2023-01-05T19:54:17.173Z,24.93
2023-01-05T19:56:44.895Z,26.67
2023-01-05T19:59:21.463Z,25.23
2023-01-05T20:01:48.513Z,29.87
2023-01-05T20:04:15.613Z,28.67
2023-01-05T20:06:44.371Z,23.63
2023-01-05T20:09:13.578Z,25.67
2023-01-05T20:11:45.729Z,28.43
2023-01-05T20:14:15.437Z,28.43
2023-01-05T20:16:44.575Z,34.30
2023-01-05T20:19:11.608Z,27.73
2023-01-05T20:21:38.406Z,38.90
2023-01-05T20:24:10.603Z,28.30
2023-01-05T20:26:37.069Z,25.87
2023-01-05T20:29:04.364Z,32.33
2023-01-05T20:31:34.310Z,23.87
2023-01-05T20:34:04.825Z,28.00
2023-01-05T20:36:31.556Z,29.97
2023-01-05T20:38:59.256Z,27.23
2023-01-05T20:41:35.775Z,31.27
2023-01-05T20:44:03.606Z,32.57
2023-01-05T20:46:34.365Z,40.57
2023-01-05T20:49:01.289Z,31.53
2023-01-05T20:51:29.095Z,29.67
2023-01-05T20:53:58.468Z,28.30
2023-01-05T20:56:33.236Z,32.23
2023-01-05T20:59:00.363Z,29.93
2023-01-05T21:01:28.240Z,31.23
2023-01-05T21:03:54.726Z,34.20
2023-01-05T21:06:21.578Z,26.37
2023-01-05T21:08:49.736Z,27.90
2023-01-05T21:11:18.407Z,29.43
2023-01-05T21:13:47.242Z,27.87
2023-01-05T21:16:18.843Z,35.80
2023-01-05T21:18:46.662Z,37.03
2023-01-05T21:21:17.797Z,26.50
2023-01-05T21:23:49.335Z,27.80
2023-01-05T21:26:17.045Z,30.27
2023-01-05T21:28:44.618Z,36.43
2023-01-05T21:31:14.471Z,30.97
2023-01-05T21:33:41.592Z,27.77
2023-01-05T21:36:15.573Z,27.43
2023-01-05T21:39:00.867Z,29.43
2023-01-05T21:41:50.390Z,31.57
2023-01-05T21:44:17.670Z,31.70
2023-01-05T21:46:44.313Z,33.37
2023-01-05T21:49:11.830Z,33.47
2023-01-05T21:51:57.416Z,35.00
2023-01-05T21:54:42.281Z,28.37
2023-01-05T21:57:08.831Z,29.77
2023-01-05T21:59:35.643Z,38.07
2023-01-05T22:02:02.165Z,35.17
2023-01-05T22:04:28.705Z,28.50
2023-01-05T22:06:55.165Z,33.53
2023-01-05T22:09:21.564Z,31.63
2023-01-05T22:11:48.427Z,33.83
2023-01-05T22:14:15.231Z,34.90
2023-01-05T22:16:41.848Z,35.67
2023-01-05T22:19:08.377Z,26.10
2023-01-05T22:21:34.820Z,36.33
2023-01-05T22:24:02.709Z,31.87
2023-01-05T22:26:29.666Z,30.33
2023-01-05T22:28:56.203Z,26.43
2023-01-05T22:31:29.110Z,32.40
2023-01-05T22:33:58.457Z,30.63
2023-01-05T22:36:26.855Z,31.17
2023-01-05T22:38:55.056Z,30.23
2023-01-05T22:41:25.073Z,31.17
2023-01-05T22:43:52.381Z,31.43
2023-01-05T22:46:21.448Z,27.33
2023-01-05T22:48:49.741Z,31.00
2023-01-05T22:51:19.015Z,27.83
2023-01-05T22:53:45.863Z,28.10
2023-01-05T22:56:13.735Z,26.47
2023-01-05T22:58:40.913Z,27.37
2023-01-05T23:01:13.523Z,32.73
2023-01-05T23:03:41.384Z,30.83
2023-01-05T23:06:08.661Z,24.37
2023-01-05T23:08:36.744Z,32.63
2023-01-05T23:11:10.125Z,27.17
2023-01-05T23:13:36.981Z,24.47
2023-01-05T23:16:05.174Z,22.73
2023-01-05T23:18:32.268Z,22.93
2023-01-05T23:21:01.218Z,24.37
2023-01-05T23:23:30.311Z,22.87
2023-01-05T23:25:57.389Z,21.27
2023-01-05T23:28:25.158Z,23.90
2023-01-05T23:30:53.641Z,22.23
2023-01-05T23:33:23.291Z,23.63
2023-01-05T23:35:53.922Z,21.40
2023-01-05T23:38:21.372Z,23.13
2023-01-05T23:40:50.385Z,20.23
2023-01-05T23:43:20.687Z,19.47
2023-01-05T23:45:48.023Z,17.60
2023-01-05T23:48:15.487Z,17.73
2023-01-05T23:50:43.819Z,20.77
2023-01-05T23:53:11.313Z,17.17
2023-01-05T23:55:38.998Z,18.57
2023-01-05T23:58:05.698Z,15.67
